sensor_id;sensor_type;location;lat;lon;timestamp;temperature;humidity
70830;SHT30;58451;51.550;7.208;2022-11-15T06:02:10;13.25;76.73
70830;SHT30;58451;51.550;7.208;2022-11-15T06:04:01;13.27;76.75
70830;SHT30;58451;51.550;7.208;2022-11-15T06:05:51;13.27;76.85
70830;SHT30;58451;51.550;7.208;2022-11-15T06:07:42;13.28;76.82
70830;SHT30;58451;51.550;7.208;2022-11-15T06:09:34;13.29;76.77
70830;SHT30;58451;51.550;7.208;2022-11-15T06:11:24;13.28;76.72
70830;SHT30;58451;51.550;7.208;2022-11-15T06:13:14;13.30;76.72
70830;SHT30;58451;51.550;7.208;2022-11-15T06:15:04;13.30;76.85
70830;SHT30;58451;51.550;7.208;2022-11-15T06:16:55;13.29;76.95
70830;SHT30;58451;51.550;7.208;2022-11-15T06:18:46;13.28;77.05
70830;SHT30;58451;51.550;7.208;2022-11-15T06:20:36;13.27;77.47
70830;SHT30;58451;51.550;7.208;2022-11-15T06:22:27;13.25;77.23
70830;SHT30;58451;51.550;7.208;2022-11-15T06:24:17;13.23;77.28
70830;SHT30;58451;51.550;7.208;2022-11-15T06:26:08;13.22;77.47
70830;SHT30;58451;51.550;7.208;2022-11-15T06:27:59;13.19;77.47
70830;SHT30;58451;51.550;7.208;2022-11-15T06:29:49;13.20;77.50
70830;SHT30;58451;51.550;7.208;2022-11-15T06:31:40;13.19;77.43
70830;SHT30;58451;51.550;7.208;2022-11-15T06:33:30;13.16;77.92
70830;SHT30;58451;51.550;7.208;2022-11-15T06:35:22;13.14;78.52
70830;SHT30;58451;51.550;7.208;2022-11-15T06:37:12;13.13;77.97
70830;SHT30;58451;51.550;7.208;2022-11-15T06:39:03;13.13;78.02
70830;SHT30;58451;51.550;7.208;2022-11-15T06:40:54;13.11;78.20
70830;SHT30;58451;51.550;7.208;2022-11-15T06:42:45;13.11;78.05
70830;SHT30;58451;51.550;7.208;2022-11-15T06:44:36;13.10;78.05
70830;SHT30;58451;51.550;7.208;2022-11-15T06:46:27;13.11;78.47
70830;SHT30;58451;51.550;7.208;2022-11-15T06:48:17;13.11;78.22
70830;SHT30;58451;51.550;7.208;2022-11-15T06:50:08;13.11;78.17
70830;SHT30;58451;51.550;7.208;2022-11-15T06:51:59;13.12;78.10
70830;SHT30;58451;51.550;7.208;2022-11-15T06:53:49;13.13;78.62
70830;SHT30;58451;51.550;7.208;2022-11-15T06:55:40;13.14;78.47
70830;SHT30;58451;51.550;7.208;2022-11-15T06:57:30;13.14;78.63
70830;SHT30;58451;51.550;7.208;2022-11-15T06:59:22;13.15;78.32
70830;SHT30;58451;51.550;7.208;2022-11-15T07:01:13;13.15;78.22
70830;SHT30;58451;51.550;7.208;2022-11-15T07:03:04;13.18;78.32
70830;SHT30;58451;51.550;7.208;2022-11-15T07:04:54;13.17;78.15
70830;SHT30;58451;51.550;7.208;2022-11-15T07:06:47;13.19;78.07
70830;SHT30;58451;51.550;7.208;2022-11-15T07:08:38;13.20;77.95
70830;SHT30;58451;51.550;7.208;2022-11-15T07:10:28;13.21;77.88
70830;SHT30;58451;51.550;7.208;2022-11-15T07:12:19;13.23;77.85
70830;SHT30;58451;51.550;7.208;2022-11-15T07:14:10;13.24;77.82
70830;SHT30;58451;51.550;7.208;2022-11-15T07:16:08;13.26;77.75
70830;SHT30;58451;51.550;7.208;2022-11-15T07:18:01;13.27;77.63
70830;SHT30;58451;51.550;7.208;2022-11-15T07:19:51;13.29;77.52
70830;SHT30;58451;51.550;7.208;2022-11-15T07:21:42;13.31;77.42
70830;SHT30;58451;51.550;7.208;2022-11-15T07:23:32;13.34;77.30
70830;SHT30;58451;51.550;7.208;2022-11-15T07:25:27;13.38;77.22
70830;SHT30;58451;51.550;7.208;2022-11-15T07:27:18;13.42;77.08
70830;SHT30;58451;51.550;7.208;2022-11-15T07:29:09;13.43;76.87
70830;SHT30;58451;51.550;7.208;2022-11-15T07:31:03;13.47;76.77
70830;SHT30;58451;51.550;7.208;2022-11-15T07:32:57;13.48;76.60
70830;SHT30;58451;51.550;7.208;2022-11-15T07:34:50;13.46;75.67
70830;SHT30;58451;51.550;7.208;2022-11-15T07:36:40;13.51;75.82
70830;SHT30;58451;51.550;7.208;2022-11-15T07:38:31;13.54;75.88
70830;SHT30;58451;51.550;7.208;2022-11-15T07:40:32;13.57;75.82
70830;SHT30;58451;51.550;7.208;2022-11-15T07:42:23;13.59;75.60
70830;SHT30;58451;51.550;7.208;2022-11-15T07:44:32;13.59;75.02
70830;SHT30;58451;51.550;7.208;2022-11-15T07:46:22;13.61;75.28
70830;SHT30;58451;51.550;7.208;2022-11-15T07:48:13;13.62;75.28
70830;SHT30;58451;51.550;7.208;2022-11-15T07:50:04;13.63;75.02
70830;SHT30;58451;51.550;7.208;2022-11-15T07:51:55;13.61;74.57
70830;SHT30;58451;51.550;7.208;2022-11-15T07:53:45;13.62;74.80
70830;SHT30;58451;51.550;7.208;2022-11-15T07:55:36;13.61;74.20
70830;SHT30;58451;51.550;7.208;2022-11-15T07:57:26;13.60;74.07
70830;SHT30;58451;51.550;7.208;2022-11-15T07:59:17;13.61;74.37
70830;SHT30;58451;51.550;7.208;2022-11-15T08:01:08;13.59;73.67
70830;SHT30;58451;51.550;7.208;2022-11-15T08:05:04;13.61;74.20
70830;SHT30;58451;51.550;7.208;2022-11-15T08:06:55;13.57;73.58
70830;SHT30;58451;51.550;7.208;2022-11-15T08:08:48;13.59;73.98
70830;SHT30;58451;51.550;7.208;2022-11-15T08:10:38;13.59;73.83
70830;SHT30;58451;51.550;7.208;2022-11-15T08:12:29;13.59;73.78
70830;SHT30;58451;51.550;7.208;2022-11-15T08:14:21;13.60;73.85
70830;SHT30;58451;51.550;7.208;2022-11-15T08:16:12;13.60;73.68
70830;SHT30;58451;51.550;7.208;2022-11-15T08:18:09;13.60;73.62
70830;SHT30;58451;51.550;7.208;2022-11-15T08:20:09;13.61;73.52
70830;SHT30;58451;51.550;7.208;2022-11-15T08:22:00;13.59;73.15
70830;SHT30;58451;51.550;7.208;2022-11-15T08:23:51;13.63;72.88
70830;SHT30;58451;51.550;7.208;2022-11-15T08:25:41;13.63;72.73
70830;SHT30;58451;51.550;7.208;2022-11-15T08:27:32;13.67;73.00
70830;SHT30;58451;51.550;7.208;2022-11-15T08:29:23;13.68;72.75
70830;SHT30;58451;51.550;7.208;2022-11-15T08:31:14;13.71;72.82
70830;SHT30;58451;51.550;7.208;2022-11-15T08:33:13;13.76;72.58
70830;SHT30;58451;51.550;7.208;2022-11-15T08:35:30;13.83;72.48
70830;SHT30;58451;51.550;7.208;2022-11-15T08:37:21;13.85;72.12
70830;SHT30;58451;51.550;7.208;2022-11-15T08:39:12;13.90;72.22
70830;SHT30;58451;51.550;7.208;2022-11-15T08:41:04;13.92;71.12
70830;SHT30;58451;51.550;7.208;2022-11-15T08:42:56;13.97;71.50
70830;SHT30;58451;51.550;7.208;2022-11-15T08:44:48;14.02;71.58
70830;SHT30;58451;51.550;7.208;2022-11-15T08:46:39;14.06;71.32
70830;SHT30;58451;51.550;7.208;2022-11-15T08:48:31;14.08;70.70
70830;SHT30;58451;51.550;7.208;2022-11-15T08:50:22;14.13;70.85
70830;SHT30;58451;51.550;7.208;2022-11-15T08:52:13;14.18;70.57
70830;SHT30;58451;51.550;7.208;2022-11-15T08:54:04;14.23;70.12
70830;SHT30;58451;51.550;7.208;2022-11-15T08:55:55;14.27;69.67
70830;SHT30;58451;51.550;7.208;2022-11-15T08:57:45;14.29;69.37
70830;SHT30;58451;51.550;7.208;2022-11-15T08:59:22;14.34;69.57
70830;SHT30;58451;51.550;7.208;2022-11-15T09:01:19;14.35;69.33
70830;SHT30;58451;51.550;7.208;2022-11-15T09:03:12;14.37;69.17
70830;SHT30;58451;51.550;7.208;2022-11-15T09:05:03;14.39;69.05
70830;SHT30;58451;51.550;7.208;2022-11-15T09:06:58;14.41;68.92
70830;SHT30;58451;51.550;7.208;2022-11-15T09:08:49;14.45;69.27
70830;SHT30;58451;51.550;7.208;2022-11-15T09:10:40;14.47;68.80
70830;SHT30;58451;51.550;7.208;2022-11-15T09:12:30;14.47;68.90
70830;SHT30;58451;51.550;7.208;2022-11-15T09:14:21;14.44;67.68
70830;SHT30;58451;51.550;7.208;2022-11-15T09:16:11;14.44;68.10
70830;SHT30;58451;51.550;7.208;2022-11-15T09:18:05;14.48;67.90
70830;SHT30;58451;51.550;7.208;2022-11-15T09:19:56;14.50;67.45
70830;SHT30;58451;51.550;7.208;2022-11-15T09:21:46;14.50;67.27
70830;SHT30;58451;51.550;7.208;2022-11-15T09:25:58;14.56;67.08
70830;SHT30;58451;51.550;7.208;2022-11-15T09:27:53;14.59;67.15
70830;SHT30;58451;51.550;7.208;2022-11-15T09:29:43;14.57;66.18
70830;SHT30;58451;51.550;7.208;2022-11-15T09:31:34;14.61;66.40
70830;SHT30;58451;51.550;7.208;2022-11-15T09:33:26;14.67;66.72
70830;SHT30;58451;51.550;7.208;2022-11-15T09:35:40;14.71;66.50
70830;SHT30;58451;51.550;7.208;2022-11-15T09:37:31;14.73;66.47
70830;SHT30;58451;51.550;7.208;2022-11-15T09:39:23;14.74;66.02
70830;SHT30;58451;51.550;7.208;2022-11-15T09:46:13;14.83;65.55
70830;SHT30;58451;51.550;7.208;2022-11-15T09:51:02;14.91;63.95
70830;SHT30;58451;51.550;7.208;2022-11-15T09:52:42;14.97;63.85
70830;SHT30;58451;51.550;7.208;2022-11-15T09:54:30;15.01;64.03
70830;SHT30;58451;51.550;7.208;2022-11-15T09:56:26;15.09;64.18
70830;SHT30;58451;51.550;7.208;2022-11-15T10:00:33;15.19;63.40
70830;SHT30;58451;51.550;7.208;2022-11-15T10:02:32;15.25;63.83
70830;SHT30;58451;51.550;7.208;2022-11-15T10:04:14;15.31;62.73
70830;SHT30;58451;51.550;7.208;2022-11-15T10:05:49;15.32;62.20
70830;SHT30;58451;51.550;7.208;2022-11-15T10:07:46;15.29;61.68
70830;SHT30;58451;51.550;7.208;2022-11-15T10:09:52;15.30;62.17
70830;SHT30;58451;51.550;7.208;2022-11-15T10:11:35;15.34;62.48
70830;SHT30;58451;51.550;7.208;2022-11-15T10:13:22;15.36;62.67
70830;SHT30;58451;51.550;7.208;2022-11-15T10:15:05;15.40;62.42
70830;SHT30;58451;51.550;7.208;2022-11-15T10:16:51;15.37;60.98
70830;SHT30;58451;51.550;7.208;2022-11-15T10:20:55;15.34;60.12
70830;SHT30;58451;51.550;7.208;2022-11-15T10:24:28;15.39;60.07
70830;SHT30;58451;51.550;7.208;2022-11-15T10:26:10;15.40;59.72
70830;SHT30;58451;51.550;7.208;2022-11-15T10:27:56;15.36;59.27
70830;SHT30;58451;51.550;7.208;2022-11-15T10:30:15;15.35;59.85
70830;SHT30;58451;51.550;7.208;2022-11-15T10:32:05;15.33;59.37
70830;SHT30;58451;51.550;7.208;2022-11-15T10:33:37;15.23;58.23
70830;SHT30;58451;51.550;7.208;2022-11-15T10:35:23;15.24;59.20
70830;SHT30;58451;51.550;7.208;2022-11-15T10:37:00;15.26;58.50
70830;SHT30;58451;51.550;7.208;2022-11-15T10:40:23;15.27;59.47
70830;SHT30;58451;51.550;7.208;2022-11-15T10:41:55;15.27;58.27
70830;SHT30;58451;51.550;7.208;2022-11-15T10:43:28;15.20;57.32
70830;SHT30;58451;51.550;7.208;2022-11-15T10:45:00;15.20;58.28
70830;SHT30;58451;51.550;7.208;2022-11-15T10:46:32;15.23;59.05
70830;SHT30;58451;51.550;7.208;2022-11-15T10:48:22;15.26;59.02
70830;SHT30;58451;51.550;7.208;2022-11-15T10:52:16;15.28;57.77
70830;SHT30;58451;51.550;7.208;2022-11-15T10:53:51;15.21;56.62
70830;SHT30;58451;51.550;7.208;2022-11-15T10:55:28;15.23;56.97
70830;SHT30;58451;51.550;7.208;2022-11-15T10:57:13;15.23;57.27
70830;SHT30;58451;51.550;7.208;2022-11-15T10:58:53;15.25;57.40
70830;SHT30;58451;51.550;7.208;2022-11-15T11:00:35;15.23;57.35
70830;SHT30;58451;51.550;7.208;2022-11-15T11:02:30;15.29;57.77
70830;SHT30;58451;51.550;7.208;2022-11-15T11:04:09;15.33;57.70
70830;SHT30;58451;51.550;7.208;2022-11-15T11:05:41;15.35;57.22
70830;SHT30;58451;51.550;7.208;2022-11-15T11:07:20;15.37;57.17
70830;SHT30;58451;51.550;7.208;2022-11-15T11:08:56;15.34;56.82
70830;SHT30;58451;51.550;7.208;2022-11-15T11:10:30;15.38;57.07
70830;SHT30;58451;51.550;7.208;2022-11-15T11:12:29;15.45;57.40
70830;SHT30;58451;51.550;7.208;2022-11-15T11:16:17;15.48;56.05
70830;SHT30;58451;51.550;7.208;2022-11-15T11:18:16;15.52;56.22
70830;SHT30;58451;51.550;7.208;2022-11-15T11:20:09;15.57;56.42
70830;SHT30;58451;51.550;7.208;2022-11-15T11:24:31;15.65;56.32
70830;SHT30;58451;51.550;7.208;2022-11-15T11:26:38;15.69;56.12
70830;SHT30;58451;51.550;7.208;2022-11-15T11:50:31;16.64;51.05
70830;SHT30;58451;51.550;7.208;2022-11-15T11:52:25;16.52;49.87
70830;SHT30;58451;51.550;7.208;2022-11-15T11:54:06;16.44;50.15
70830;SHT30;58451;51.550;7.208;2022-11-15T11:56:03;16.31;49.03
70830;SHT30;58451;51.550;7.208;2022-11-15T12:00:20;16.26;50.52
70830;SHT30;58451;51.550;7.208;2022-11-15T12:01:54;16.27;50.12
70830;SHT30;58451;51.550;7.208;2022-11-15T20:30:21;14.25;68.68
70830;SHT30;58451;51.550;7.208;2022-11-15T20:31:53;14.26;68.37
